Time;durP1;ratioP1;P1;durP2;ratioP2;P2;SDS_P1;SDS_P2;PMS_P1;PMS_P2;Temp;Humidity;BMP_temperature;BMP_pressure;BME280_temperature;BME280_humidity;BME280_pressure;Samples;Min_cycle;Max_cycle;Signal;HPM_P1;HPM_P2
2020/12/15 00:01:23;;;;;;;8.55;5.38;;;;;;;6.18;89.70;100771.63;5064422;28;20035;-70
2020/12/15 00:03:49;;;;;;;6.80;4.88;;;;;;;6.24;89.39;100774.56;5064802;28;20433;-73
2020/12/15 00:06:17;;;;;;;5.82;4.68;;;;;;;6.22;89.26;100771.00;5057962;28;20032;-73
2020/12/15 00:08:42;;;;;;;6.75;5.25;;;;;;;6.24;89.32;100779.69;5069873;28;20020;-71
2020/12/15 00:11:08;;;;;;;5.95;5.00;;;;;;;6.21;89.08;100779.53;5061865;28;20532;-73
2020/12/15 00:13:34;;;;;;;7.55;6.00;;;;;;;6.17;90.06;100777.53;5069609;28;20401;-73
2020/12/15 00:15:59;;;;;;;10.45;6.88;;;;;;;6.12;90.35;100784.97;5069976;28;20490;-71
2020/12/15 00:18:25;;;;;;;8.55;6.70;;;;;;;6.18;90.29;100787.00;5073939;28;20073;-74
2020/12/15 00:20:50;;;;;;;8.75;6.35;;;;;;;6.30;89.79;100793.75;5073314;28;20033;-73
2020/12/15 00:23:16;;;;;;;9.13;6.75;;;;;;;6.14;90.48;100788.50;5073724;28;20109;-70
2020/12/15 00:25:41;;;;;;;12.32;8.25;;;;;;;6.27;90.06;100785.00;5071764;28;20024;-72
2020/12/15 00:28:07;;;;;;;6.90;5.40;;;;;;;6.34;89.52;100781.13;5071699;28;20100;-69
2020/12/15 00:30:32;;;;;;;9.40;6.32;;;;;;;6.31;89.39;100786.94;5072828;28;20070;-71
2020/12/15 00:32:58;;;;;;;8.80;6.25;;;;;;;6.24;89.25;100780.59;5073533;28;20520;-72
2020/12/15 00:35:23;;;;;;;11.25;6.55;;;;;;;6.21;89.99;100784.66;5073563;28;20083;-71
2020/12/15 00:37:49;;;;;;;5.72;4.55;;;;;;;6.29;89.49;100779.19;5073234;28;20024;-70
2020/12/15 00:40:14;;;;;;;6.70;4.78;;;;;;;6.30;89.61;100772.34;5062744;28;20094;-68
2020/12/15 00:42:40;;;;;;;6.15;4.50;;;;;;;6.34;89.39;100776.00;5071560;28;20024;-66
2020/12/15 00:45:05;;;;;;;6.55;5.50;;;;;;;6.27;89.83;100773.06;5073817;28;20463;-69
2020/12/15 00:47:31;;;;;;;6.38;4.75;;;;;;;6.27;89.73;100774.75;5074106;28;20105;-69
2020/12/15 00:49:57;;;;;;;6.72;5.10;;;;;;;6.19;90.22;100771.72;5073936;28;20564;-71
2020/12/15 00:52:27;;;;;;;8.80;5.30;;;;;;;6.12;90.23;100774.72;5073930;28;20027;-68
2020/12/15 00:54:52;;;;;;;;;;;;;;;6.13;90.61;100768.78;5060335;28;20086;-73
2020/12/15 00:57:19;;;;;;;10.32;5.20;;;;;;;5.96;91.33;100778.88;5060091;28;19916;-73
2020/12/15 00:59:44;;;;;;;10.85;6.20;;;;;;;5.80;92.21;100774.50;5038009;28;20364;-72
2020/12/15 01:02:10;;;;;;;10.20;6.95;;;;;;;5.75;91.94;100757.97;5054545;28;20028;-74
2020/12/15 01:04:35;;;;;;;8.23;5.70;;;;;;;5.97;91.70;100783.22;5055412;28;20490;-71
2020/12/15 01:07:01;;;;;;;9.02;6.15;;;;;;;5.97;91.51;100790.91;5057616;28;20021;-72
2020/12/15 01:09:26;;;;;;;6.80;5.20;;;;;;;5.88;91.34;100780.13;5062758;28;20029;-70
2020/12/15 01:11:51;;;;;;;6.00;4.78;;;;;;;5.94;91.58;100800.09;5064372;28;20020;-73
2020/12/15 01:14:17;;;;;;;6.25;4.90;;;;;;;5.97;91.43;100793.47;5064317;28;20027;-70
2020/12/15 01:16:42;;;;;;;6.05;4.60;;;;;;;5.95;91.05;100791.63;5056245;28;20181;-73
2020/12/15 01:19:08;;;;;;;14.98;8.80;;;;;;;5.89;91.18;100791.25;5056101;28;20395;-73
2020/12/15 01:21:33;;;;;;;22.65;13.15;;;;;;;6.07;91.16;100791.47;5059416;28;20060;-72
2020/12/15 01:23:59;;;;;;;21.02;10.98;;;;;;;6.07;90.60;100774.44;5072409;28;20033;-72
2020/12/15 01:26:24;;;;;;;11.57;6.32;;;;;;;6.12;89.99;100793.53;5063421;28;20033;-73
2020/12/15 01:28:50;;;;;;;17.08;9.63;;;;;;;6.15;90.08;100796.28;5057805;28;20071;-73
2020/12/15 01:31:22;;;;;;;6.53;4.60;;;;;;;6.16;90.41;100792.06;5059070;28;20044;-73
2020/12/15 01:33:48;;;;;;;5.15;4.05;;;;;;;5.99;90.57;100767.97;5043539;28;20496;-71
2020/12/15 01:36:13;;;;;;;8.52;5.28;;;;;;;6.07;90.55;100796.59;5059572;28;20114;-74
2020/12/15 01:38:41;;;;;;;5.30;4.20;;;;;;;5.82;90.72;100747.31;5059533;28;20020;-71
2020/12/15 01:41:06;;;;;;;6.70;4.45;;;;;;;6.04;90.30;100783.63;5066960;28;20031;-73
2020/12/15 01:43:31;;;;;;;7.97;4.38;;;;;;;5.99;90.58;100794.50;5060558;28;20036;-73
2020/12/15 01:45:57;;;;;;;9.90;6.45;;;;;;;5.99;90.68;100797.06;5058960;28;20076;-72
2020/12/15 01:48:22;;;;;;;7.53;4.57;;;;;;;6.05;90.20;100783.72;5053481;28;20091;-71
2020/12/15 01:50:48;;;;;;;10.98;6.28;;;;;;;5.85;90.14;100749.16;5054087;28;20402;-71
2020/12/15 01:53:14;;;;;;;6.15;4.65;;;;;;;6.14;90.11;100801.31;5057777;28;20081;-70
2020/12/15 01:55:40;;;;;;;6.20;4.70;;;;;;;6.23;89.73;100799.31;5070570;28;20028;-73
2020/12/15 01:58:06;;;;;;;6.63;5.10;;;;;;;6.24;89.58;100798.53;5071523;28;20502;-71
2020/12/15 02:00:32;;;;;;;6.00;4.70;;;;;;;6.19;89.41;100792.22;5072070;28;20059;-71
2020/12/15 02:02:58;;;;;;;7.18;4.97;;;;;;;6.16;89.53;100799.75;5071787;28;20501;-71
2020/12/15 02:05:23;;;;;;;8.57;6.18;;;;;;;6.05;90.07;100780.28;5072076;28;20024;-71
2020/12/15 02:07:50;;;;;;;9.80;7.07;;;;;;;5.89;90.03;100760.50;5071346;28;20086;-68
2020/12/15 02:10:16;;;;;;;11.05;6.75;;;;;;;6.10;90.34;100791.69;5071852;28;20025;-71
2020/12/15 02:12:41;;;;;;;8.45;5.82;;;;;;;6.19;90.19;100786.22;5071923;28;20035;-71
2020/12/15 02:15:07;;;;;;;7.40;5.57;;;;;;;6.21;89.91;100798.34;5072030;28;20028;-72
2020/12/15 02:17:34;;;;;;;12.52;8.02;;;;;;;6.23;90.13;100795.84;5070093;28;20025;-71
2020/12/15 02:20:10;;;;;;;8.63;5.65;;;;;;;6.11;89.79;100788.34;5071408;28;20060;-71
2020/12/15 02:22:36;;;;;;;7.03;5.28;;;;;;;5.88;90.03;100762.19;5071362;28;20137;-71
2020/12/15 02:25:07;;;;;;;7.63;5.90;;;;;;;5.98;90.59;100808.09;5071523;28;20036;-71
2020/12/15 02:27:33;;;;;;;6.68;5.05;;;;;;;5.79;90.82;100774.41;5069643;28;20054;-71
2020/12/15 02:29:58;;;;;;;7.85;5.10;;;;;;;6.10;90.16;100813.06;5053660;28;20025;-69
2020/12/15 02:32:24;;;;;;;6.47;4.82;;;;;;;6.04;90.23;100817.81;5071276;28;20039;-68
2020/12/15 02:34:59;;;;;;;7.30;5.70;;;;;;;5.96;91.00;100814.75;5070921;28;20040;-68
2020/12/15 02:37:25;;;;;;;8.55;5.45;;;;;;;6.01;90.89;100804.84;5053391;28;20452;-71
2020/12/15 02:39:50;;;;;;;7.45;5.85;;;;;;;6.00;90.99;100813.31;5035595;28;20041;-73
2020/12/15 02:42:16;;;;;;;7.82;6.15;;;;;;;5.97;91.00;100811.41;5071839;28;20025;-68
2020/12/15 02:44:41;;;;;;;9.57;6.10;;;;;;;6.11;90.39;100822.53;5070905;28;20036;-69
2020/12/15 02:47:07;;;;;;;9.45;6.57;;;;;;;6.21;89.69;100816.28;5071623;28;20017;-71
2020/12/15 02:49:33;;;;;;;8.52;5.78;;;;;;;6.31;89.40;100812.59;5071397;28;20028;-68
2020/12/15 02:51:59;;;;;;;8.07;6.38;;;;;;;6.25;89.36;100796.84;5071116;28;20033;-69
2020/12/15 02:54:24;;;;;;;8.93;6.15;;;;;;;6.34;89.21;100829.84;5070750;28;20040;-71
2020/12/15 02:56:49;;;;;;;8.65;5.13;;;;;;;6.33;89.27;100826.41;5052373;28;20020;-71
2020/12/15 02:59:15;;;;;;;8.57;5.82;;;;;;;6.39;89.33;100834.47;5070892;28;20025;-70
2020/12/15 03:01:43;;;;;;;8.45;5.30;;;;;;;6.41;88.99;100830.28;5069483;28;20106;-73
2020/12/15 03:04:09;;;;;;;10.57;9.02;;;;;;;6.46;88.89;100835.69;5070580;28;20024;-71
2020/12/15 03:06:36;;;;;;;9.05;5.63;;;;;;;6.44;89.07;100830.50;5050345;28;20168;-74
2020/12/15 03:09:06;;;;;;;7.63;5.38;;;;;;;6.32;89.05;100819.50;5070417;28;20150;-68
2020/12/15 03:11:32;;;;;;;11.93;7.15;;;;;;;6.35;89.38;100832.50;5070407;28;20024;-68
2020/12/15 03:13:57;;;;;;;7.63;6.05;;;;;;;6.40;88.87;100832.78;5070428;28;20040;-69
2020/12/15 03:16:23;;;;;;;7.30;5.75;;;;;;;6.28;88.65;100810.72;5069255;28;20425;-69
2020/12/15 03:18:48;;;;;;;7.00;5.70;;;;;;;6.45;88.59;100841.63;5070796;28;20027;-71
2020/12/15 03:21:17;;;;;;;12.68;6.15;;;;;;;6.39;88.60;100837.03;5070443;28;20039;-71
2020/12/15 03:23:42;;;;;;;9.13;5.75;;;;;;;6.43;88.77;100858.59;5018315;28;20048;-68
2020/12/15 03:26:08;;;;;;;9.48;6.07;;;;;;;6.51;88.11;100854.81;5070190;28;20032;-69
2020/12/15 03:28:34;;;;;;;7.93;6.10;;;;;;;6.53;88.16;100860.94;5070580;28;20394;-68
2020/12/15 03:30:59;;;;;;;7.63;5.65;;;;;;;6.57;88.07;100854.31;5069986;28;20097;-68
2020/12/15 03:33:25;;;;;;;7.32;5.32;;;;;;;6.59;88.08;100861.28;5070225;28;20480;-70
2020/12/15 03:35:50;;;;;;;9.85;5.57;;;;;;;6.63;88.03;100863.25;5070184;28;20052;-71
2020/12/15 03:38:16;;;;;;;12.75;8.35;;;;;;;6.55;88.02;100872.13;5067175;28;20029;-70
2020/12/15 03:40:41;;;;;;;18.70;11.15;;;;;;;6.60;88.27;100877.56;5070092;28;20035;-72
2020/12/15 03:43:06;;;;;;;18.20;10.73;;;;;;;6.44;88.68;100881.78;5070157;28;20027;-69
2020/12/15 03:45:32;;;;;;;14.18;8.57;;;;;;;6.42;88.63;100885.94;5070680;28;20418;-72
2020/12/15 03:47:58;;;;;;;9.15;6.47;;;;;;;6.26;88.52;100853.34;5070204;28;20122;-68
2020/12/15 03:50:24;;;;;;;9.40;6.10;;;;;;;6.50;88.06;100888.94;5070527;28;20123;-68
2020/12/15 03:52:50;;;;;;;7.97;4.80;;;;;;;6.55;87.05;100895.22;5072557;28;20465;-72
2020/12/15 03:55:15;;;;;;;8.15;5.57;;;;;;;6.42;86.50;100862.84;5074326;28;20031;-71
2020/12/15 03:57:41;;;;;;;6.70;4.97;;;;;;;6.60;85.12;100898.97;5074235;28;20595;-72
2020/12/15 04:00:07;;;;;;;6.00;3.90;;;;;;;6.69;83.13;100900.31;5073879;28;20021;-70
2020/12/15 04:02:32;;;;;;;7.38;4.88;;;;;;;6.52;82.77;100873.63;5064388;28;20498;-72
2020/12/15 04:04:58;;;;;;;18.15;10.60;;;;;;;6.69;81.75;100903.78;5068718;28;20020;-70
2020/12/15 04:07:24;;;;;;;9.98;5.18;;;;;;;6.69;82.11;100901.22;5072840;28;20024;-69
2020/12/15 04:09:49;;;;;;;17.25;15.75;;;;;;;6.68;81.25;100904.56;5072721;28;20025;-69
2020/12/15 04:12:15;;;;;;;6.57;4.30;;;;;;;6.63;81.38;100913.69;5072830;28;20040;-68
2020/12/15 04:14:40;;;;;;;7.80;5.25;;;;;;;6.75;81.16;100904.16;5053760;28;20029;-70
2020/12/15 04:17:08;;;;;;;8.48;4.93;;;;;;;6.63;80.39;100903.41;5072532;28;20039;-69
2020/12/15 04:19:34;;;;;;;8.05;4.82;;;;;;;6.69;80.47;100920.84;5054431;28;20029;-70
2020/12/15 04:21:59;;;;;;;7.57;4.97;;;;;;;6.66;80.18;100918.09;5073020;28;20379;-73
2020/12/15 04:24:25;;;;;;;6.50;4.15;;;;;;;6.59;80.47;100921.97;5072803;28;20021;-71
2020/12/15 04:26:50;;;;;;;8.75;5.50;;;;;;;6.60;80.95;100919.50;5071694;28;20024;-71
2020/12/15 04:29:16;;;;;;;8.18;4.95;;;;;;;6.64;81.15;100929.16;5072345;28;20081;-70
2020/12/15 04:31:41;;;;;;;14.25;12.82;;;;;;;6.59;80.53;100916.81;5073448;28;20064;-70
2020/12/15 04:34:07;;;;;;;8.93;7.28;;;;;;;6.65;80.16;100940.28;5046228;28;20395;-70
2020/12/15 04:36:32;;;;;;;9.15;8.00;;;;;;;6.62;80.66;100930.72;5055324;28;20055;-72
2020/12/15 04:38:58;;;;;;;8.75;5.30;;;;;;;6.82;80.30;100951.56;5061170;28;20032;-70
2020/12/15 04:41:23;;;;;;;20.38;12.90;;;;;;;6.89;80.47;100943.44;5071724;28;20183;-73
2020/12/15 04:43:49;;;;;;;15.70;9.43;;;;;;;6.83;80.20;100931.91;5073267;28;20463;-68
2020/12/15 04:46:21;;;;;;;21.42;15.30;;;;;;;6.64;80.62;100916.31;5072909;28;20032;-71
2020/12/15 04:49:16;;;;;;;10.93;7.25;;;;;;;6.77;80.35;100937.59;5071678;28;20024;-70
2020/12/15 04:52:05;;;;;;;14.63;9.02;;;;;;;6.71;80.81;100947.47;5054914;28;20032;-70
2020/12/15 04:54:32;;;;;;;12.02;7.38;;;;;;;6.64;80.82;100949.69;5068681;28;20056;-71
2020/12/15 04:57:00;;;;;;;9.35;6.25;;;;;;;6.69;80.98;100944.84;5074210;28;20032;-74
2020/12/15 04:59:32;;;;;;;9.20;6.55;;;;;;;6.67;81.24;100945.50;5073871;28;20028;-68
2020/12/15 05:01:59;;;;;;;11.50;6.60;;;;;;;6.63;81.22;100950.47;5055883;28;20031;-69
2020/12/15 05:04:26;;;;;;;8.60;5.40;;;;;;;6.38;81.46;100914.75;5074288;28;20045;-75
2020/12/15 05:06:55;;;;;;;7.97;5.50;;;;;;;6.18;80.63;100885.34;5074019;28;20050;-68
2020/12/15 05:09:31;;;;;;;10.65;6.70;;;;;;;6.35;81.16;100921.38;5056198;28;20027;-70
2020/12/15 05:11:57;;;;;;;9.18;6.22;;;;;;;6.48;81.09;100945.28;5073961;28;20051;-69
2020/12/15 05:14:26;;;;;;;9.45;6.28;;;;;;;6.56;81.36;100957.69;5073627;28;20483;-71
2020/12/15 05:16:52;;;;;;;7.82;5.10;;;;;;;6.50;80.90;100955.63;5073724;28;20421;-69
2020/12/15 05:19:18;;;;;;;9.05;5.55;;;;;;;6.54;81.27;100972.09;5074023;28;20112;-70
2020/12/15 05:21:57;;;;;;;8.25;5.53;;;;;;;6.57;80.82;100974.88;5073790;28;20124;-73
2020/12/15 05:24:29;;;;;;;10.73;7.57;;;;;;;6.60;80.99;100975.03;5073857;28;20044;-70
2020/12/15 05:26:58;;;;;;;10.57;5.90;;;;;;;6.64;80.60;100977.00;5073276;28;20111;-75
2020/12/15 05:29:26;;;;;;;11.20;5.68;;;;;;;6.67;80.59;100976.28;5073409;28;20032;-68
2020/12/15 05:31:52;;;;;;;9.80;6.90;;;;;;;6.67;80.58;100986.56;5073479;28;20025;-75
2020/12/15 05:34:26;;;;;;;12.27;9.13;;;;;;;6.65;80.33;100978.78;5072348;28;20048;-68
2020/12/15 05:36:56;;;;;;;10.80;8.27;;;;;;;6.66;80.79;100985.69;5073533;28;20028;-74
2020/12/15 05:39:22;;;;;;;9.93;6.00;;;;;;;6.72;80.59;100988.63;5073185;28;20035;-72
2020/12/15 05:42:01;;;;;;;10.77;5.82;;;;;;;6.72;80.29;100983.50;5073414;28;20063;-74
2020/12/15 05:44:27;;;;;;;14.55;8.40;;;;;;;6.70;79.60;100995.31;5054254;28;20036;-71
2020/12/15 05:46:59;;;;;;;12.57;7.93;;;;;;;6.69;79.83;100992.69;5073328;28;20076;-68
2020/12/15 05:49:27;;;;;;;11.82;7.25;;;;;;;6.82;80.50;101000.34;5073421;28;20479;-68
2020/12/15 05:51:53;;;;;;;14.13;9.20;;;;;;;6.80;79.68;100991.66;5073271;28;20024;-72
2020/12/15 05:54:18;;;;;;;10.70;6.93;;;;;;;6.79;80.07;101006.16;5073092;28;20249;-71
2020/12/15 05:56:44;;;;;;;28.73;18.15;;;;;;;6.71;80.39;101016.75;5073480;28;20169;-70
2020/12/15 05:59:20;;;;;;;13.20;9.68;;;;;;;6.76;80.14;101012.78;5071493;28;20036;-68
2020/12/15 06:01:49;;;;;;;9.20;6.78;;;;;;;6.75;80.25;101026.41;5073063;28;20033;-69
2020/12/15 06:04:15;;;;;;;7.18;5.50;;;;;;;6.76;80.12;101018.78;5073063;28;20033;-70
2020/12/15 06:06:42;;;;;;;7.22;5.43;;;;;;;6.71;79.73;101025.34;5073075;28;20028;-69
2020/12/15 06:09:15;;;;;;;10.93;6.65;;;;;;;6.68;80.50;101025.16;5072429;28;20029;-71
2020/12/15 06:11:42;;;;;;;8.63;6.32;;;;;;;6.73;80.24;101034.03;5070475;28;20129;-68
2020/12/15 06:14:09;;;;;;;7.90;6.07;;;;;;;6.73;80.03;101033.13;5071571;28;20016;-71
2020/12/15 06:16:35;;;;;;;9.38;6.05;;;;;;;6.70;80.06;101022.69;5069491;28;20024;-68
2020/12/15 06:19:01;;;;;;;8.02;5.00;;;;;;;6.72;79.91;101031.38;5071982;28;20030;-71
2020/12/15 06:21:28;;;;;;;9.10;5.18;;;;;;;6.60;79.86;101014.44;5072663;28;20038;-71
2020/12/15 06:24:21;;;;;;;15.48;9.32;;;;;;;6.57;79.90;101019.34;5072017;28;20069;-68
2020/12/15 06:26:59;;;;;;;15.13;11.32;;;;;;;6.42;79.68;101000.47;5029824;28;20593;-71
2020/12/15 06:29:33;;;;;;;13.38;9.70;;;;;;;6.78;79.76;101059.97;5030271;28;20026;-70
2020/12/15 06:32:07;;;;;;;16.35;11.85;;;;;;;6.77;80.49;101065.91;5029888;28;20041;-68
2020/12/15 06:34:33;;;;;;;17.23;10.80;;;;;;;6.66;80.27;101028.44;5029777;28;20081;-69
2020/12/15 06:36:59;;;;;;;13.73;8.80;;;;;;;6.94;80.21;101070.38;4995868;28;20571;-74
2020/12/15 06:39:28;;;;;;;16.05;11.07;;;;;;;6.97;80.17;101067.13;5030005;28;20060;-68
2020/12/15 06:41:59;;;;;;;19.40;11.55;;;;;;;6.98;80.31;101066.31;5045474;28;20102;-70
2020/12/15 06:44:31;;;;;;;14.23;10.98;;;;;;;7.03;79.97;101074.28;5040800;28;20041;-71
2020/12/15 06:46:58;;;;;;;16.10;10.88;;;;;;;7.08;79.56;101076.34;5028192;28;20474;-71
2020/12/15 06:49:36;;;;;;;17.05;12.95;;;;;;;6.95;78.99;101067.03;5027455;28;20025;-71
2020/12/15 06:52:06;;;;;;;29.08;12.00;;;;;;;6.80;78.95;101063.50;5028105;28;20038;-71
2020/12/15 06:54:38;;;;;;;23.65;10.25;;;;;;;6.89;79.65;101087.19;5027290;28;20030;-72
2020/12/15 06:57:09;;;;;;;19.77;11.77;;;;;;;6.75;80.19;101088.00;5036495;28;20040;-72
2020/12/15 06:59:48;;;;;;;27.00;14.98;;;;;;;6.54;80.80;101091.00;5070378;28;20056;-72
2020/12/15 07:02:17;;;;;;;;;;;;;;;6.53;81.04;101101.16;5071159;28;20449;-71
2020/12/15 07:04:45;;;;;;;19.17;9.77;;;;;;;6.44;80.93;101091.19;5070370;28;19912;-72
2020/12/15 07:07:12;;;;;;;20.20;12.15;;;;;;;6.62;80.89;101096.63;5071129;28;20028;-72
2020/12/15 07:09:38;;;;;;;18.00;9.88;;;;;;;6.74;80.84;101102.53;5070615;28;20101;-72
2020/12/15 07:12:13;;;;;;;19.60;10.35;;;;;;;6.78;80.67;101094.22;5068205;28;20441;-72
2020/12/15 07:14:42;;;;;;;22.90;13.75;;;;;;;6.84;79.88;101100.50;5070142;28;20025;-71
2020/12/15 07:17:08;;;;;;;23.80;15.32;;;;;;;6.63;80.62;101071.06;5070701;28;20111;-71
2020/12/15 07:19:34;;;;;;;25.77;18.42;;;;;;;6.76;81.25;101115.44;5052316;28;20111;-72
2020/12/15 07:21:59;;;;;;;29.05;18.45;;;;;;;6.38;82.00;101101.97;5070254;28;20549;-72
2020/12/15 07:24:26;;;;;;;15.90;11.18;;;;;;;6.38;82.39;101117.34;5070950;28;20039;-72
2020/12/15 07:26:52;;;;;;;20.13;13.73;;;;;;;6.49;82.18;101112.88;5070922;28;20028;-72
2020/12/15 07:29:18;;;;;;;22.40;14.88;;;;;;;6.54;81.88;101113.19;5070697;28;20032;-72
2020/12/15 07:31:44;;;;;;;20.63;10.38;;;;;;;6.72;81.29;101124.63;5052389;28;20051;-72
2020/12/15 07:34:10;;;;;;;14.98;10.23;;;;;;;6.76;81.38;101111.19;5069673;28;20055;-71
2020/12/15 07:36:38;;;;;;;13.75;8.80;;;;;;;7.01;80.62;101117.84;5069873;28;20097;-71
2020/12/15 07:39:05;;;;;;;15.60;11.40;;;;;;;7.17;79.91;101119.69;5069147;28;20025;-71
2020/12/15 07:41:36;;;;;;;12.85;9.95;;;;;;;7.32;79.80;101126.56;5068690;28;20450;-72
2020/12/15 07:44:04;;;;;;;72.35;40.45;;;;;;;7.46;79.65;101115.41;5070259;28;20064;-71
2020/12/15 07:46:29;;;;;;;53.15;31.95;;;;;;;7.56;79.16;101120.31;5069949;28;20024;-72
2020/12/15 07:48:55;;;;;;;12.75;9.10;;;;;;;7.67;77.89;101114.94;5085229;28;20051;-72
2020/12/15 07:51:21;;;;;;;9.98;6.40;;;;;;;7.72;75.26;101116.94;5070451;28;20091;-71
2020/12/15 07:53:51;;;;;;;8.95;6.07;;;;;;;7.81;74.69;101115.72;5066164;28;20049;-71
2020/12/15 07:56:18;;;;;;;18.95;11.98;;;;;;;7.77;75.26;101127.50;5070023;28;20020;-71
2020/12/15 07:58:48;;;;;;;8.50;5.63;;;;;;;7.86;75.79;101122.94;5069548;28;20017;-72
2020/12/15 08:01:19;;;;;;;14.57;7.60;;;;;;;7.82;77.07;101092.69;5070355;28;20032;-71
2020/12/15 08:03:45;;;;;;;10.93;5.75;;;;;;;7.97;77.29;101117.50;5070410;28;21064;-72
2020/12/15 08:06:10;;;;;;;8.32;5.18;;;;;;;8.14;75.16;101137.38;5070735;28;20032;-71
2020/12/15 08:08:37;;;;;;;11.68;6.18;;;;;;;8.17;74.85;101128.94;5070610;28;20029;-72
2020/12/15 08:11:02;;;;;;;8.88;5.72;;;;;;;8.21;75.19;101133.47;5070434;28;20024;-71
2020/12/15 08:13:29;;;;;;;7.50;5.22;;;;;;;8.19;74.63;101135.06;5070926;28;20040;-72
2020/12/15 08:15:54;;;;;;;6.18;4.43;;;;;;;8.24;74.66;101144.81;5069494;28;20035;-71
2020/12/15 08:18:21;;;;;;;9.05;7.53;;;;;;;8.08;73.15;101122.47;5070154;28;20123;-71
2020/12/15 08:21:00;;;;;;;21.92;19.67;;;;;;;8.31;74.47;101129.72;5069333;28;20571;-71
2020/12/15 08:23:25;;;;;;;9.77;5.90;;;;;;;8.41;73.87;101139.72;5070085;28;20043;-71
2020/12/15 08:25:56;;;;;;;6.78;5.03;;;;;;;8.45;73.96;101143.38;5066886;28;20049;-71
2020/12/15 08:28:21;;;;;;;5.55;4.03;;;;;;;8.47;73.70;101137.53;5069198;28;20409;-71
2020/12/15 08:30:52;;;;;;;7.25;4.75;;;;;;;8.48;74.74;101149.59;5057236;28;20048;-71
2020/12/15 08:33:25;;;;;;;8.52;5.65;;;;;;;8.47;74.28;101147.81;5030156;28;20144;-71
2020/12/15 08:35:53;;;;;;;6.43;4.68;;;;;;;8.48;72.92;101141.88;5049338;28;20426;-71
2020/12/15 08:38:20;;;;;;;7.18;5.30;;;;;;;8.46;73.45;101147.72;5051982;28;20078;-72
2020/12/15 08:40:53;;;;;;;9.70;5.60;;;;;;;8.17;73.58;101116.97;5021591;28;20041;-72
2020/12/15 08:43:19;;;;;;;6.88;5.63;;;;;;;8.22;73.67;101154.16;5072879;28;20483;-71
2020/12/15 08:45:45;;;;;;;8.30;5.10;;;;;;;8.22;74.07;101146.44;5073365;28;20021;-71
2020/12/15 08:48:17;;;;;;;5.20;4.43;;;;;;;8.29;73.59;101144.19;5073849;28;20482;-72
2020/12/15 08:50:42;;;;;;;7.65;5.50;;;;;;;8.45;74.00;101152.00;5073771;28;20451;-72
2020/12/15 08:53:11;;;;;;;6.38;4.97;;;;;;;8.50;73.52;101148.03;5074004;28;20110;-72
2020/12/15 08:55:38;;;;;;;5.72;4.10;;;;;;;8.56;73.89;101135.50;5031303;28;20048;-71
2020/12/15 08:58:05;;;;;;;6.95;4.60;;;;;;;8.54;73.66;101136.22;5031443;28;20109;-71
2020/12/15 09:00:36;;;;;;;6.68;3.72;;;;;;;8.50;71.67;101140.31;5030556;28;20192;-72
2020/12/15 09:03:05;;;;;;;6.68;4.88;;;;;;;8.61;72.42;101140.00;5010934;28;20033;-72
2020/12/15 09:05:30;;;;;;;14.60;7.72;;;;;;;8.59;72.73;101129.63;5030614;28;20522;-71
2020/12/15 09:08:02;;;;;;;31.75;17.00;;;;;;;8.63;73.17;101134.13;4994130;28;20071;-70
2020/12/15 09:10:29;;;;;;;38.00;19.90;;;;;;;8.59;73.40;101134.78;5031059;28;20041;-71
2020/12/15 09:12:55;;;;;;;18.25;9.07;;;;;;;8.66;73.04;101124.03;5029629;28;20458;-72
2020/12/15 09:15:20;;;;;;;38.78;17.02;;;;;;;8.61;72.68;101112.59;5030798;28;20038;-72
2020/12/15 09:17:47;;;;;;;23.92;10.13;;;;;;;8.71;72.51;101135.47;5029855;28;20029;-72
2020/12/15 09:20:24;;;;;;;11.93;5.78;;;;;;;8.50;72.43;101075.97;5030905;28;20499;-71
2020/12/15 09:22:50;;;;;;;11.65;7.95;;;;;;;8.61;72.77;101075.66;5030538;28;20033;-71
2020/12/15 09:25:15;;;;;;;8.75;6.88;;;;;;;8.78;73.63;101117.78;5030772;28;20610;-72
2020/12/15 09:27:48;;;;;;;10.55;8.65;;;;;;;8.87;74.35;101121.75;5036884;28;20033;-71
2020/12/15 09:30:15;;;;;;;9.13;5.32;;;;;;;8.87;73.60;101123.41;5053014;28;20020;-72
2020/12/15 09:32:44;;;;;;;6.10;4.53;;;;;;;8.69;72.84;101085.56;5052615;28;20093;-72
2020/12/15 09:35:11;;;;;;;6.68;4.63;;;;;;;8.76;72.56;101096.19;5065548;28;20077;-72
2020/12/15 09:37:38;;;;;;;12.55;8.13;;;;;;;8.95;72.68;101117.00;5071532;28;20041;-72
2020/12/15 09:40:06;;;;;;;36.88;22.73;;;;;;;8.89;73.34;101120.13;5053876;28;20674;-71
2020/12/15 09:42:32;;;;;;;12.88;8.82;;;;;;;8.95;73.73;101122.16;5071746;28;20032;-72
2020/12/15 09:44:59;;;;;;;13.15;8.60;;;;;;;8.98;73.18;101112.00;5071936;28;20089;-72
2020/12/15 09:47:24;;;;;;;6.78;5.13;;;;;;;9.00;72.29;101109.53;5069357;28;20032;-72
2020/12/15 09:49:50;;;;;;;9.05;5.93;;;;;;;9.00;73.37;101106.94;5071458;28;20093;-72
2020/12/15 09:52:15;;;;;;;8.77;5.47;;;;;;;8.92;72.73;101090.19;5071649;28;20056;-71
2020/12/15 09:54:41;;;;;;;7.90;5.22;;;;;;;9.01;73.14;101113.84;5072213;28;20485;-72
2020/12/15 09:57:07;;;;;;;8.93;5.75;;;;;;;9.01;73.68;101119.00;5071381;28;20086;-71
2020/12/15 09:59:33;;;;;;;14.02;9.23;;;;;;;8.89;74.25;101101.22;5072538;28;20093;-72
2020/12/15 10:01:59;;;;;;;18.23;12.00;;;;;;;8.91;73.79;101094.47;5051938;28;20553;-71
2020/12/15 10:04:24;;;;;;;7.85;5.40;;;;;;;9.05;73.20;101106.38;5072238;28;20028;-72
2020/12/15 10:06:50;;;;;;;8.05;5.20;;;;;;;9.06;74.11;101107.28;5072590;28;20035;-72
2020/12/15 10:09:15;;;;;;;7.53;5.13;;;;;;;9.06;74.39;101104.69;5071288;28;20047;-71
2020/12/15 10:11:43;;;;;;;8.60;6.43;;;;;;;9.16;74.47;101103.47;5072426;28;20032;-71
2020/12/15 10:14:09;;;;;;;7.95;5.43;;;;;;;9.10;73.16;101100.56;5071050;28;20157;-71
2020/12/15 10:16:35;;;;;;;9.15;5.88;;;;;;;9.18;73.34;101100.22;5071904;28;20441;-71
2020/12/15 10:19:01;;;;;;;9.10;5.93;;;;;;;9.23;72.64;101097.84;5072153;28;20025;-71
2020/12/15 10:21:26;;;;;;;7.40;5.45;;;;;;;9.04;73.34;101084.00;5071395;28;20028;-72
2020/12/15 10:23:53;;;;;;;7.80;5.90;;;;;;;9.11;72.66;101082.66;5071853;28;20115;-72
2020/12/15 10:26:42;;;;;;;8.40;5.50;;;;;;;9.29;74.21;101084.41;5071390;28;20566;-72
2020/12/15 10:29:07;;;;;;;8.77;5.88;;;;;;;9.26;72.84;101091.97;5009160;28;20048;-69
2020/12/15 10:31:33;;;;;;;12.52;11.23;;;;;;;9.47;71.42;101089.63;5008442;28;20484;-71
2020/12/15 10:33:58;;;;;;;7.40;5.25;;;;;;;9.49;71.36;101086.31;5013437;28;20480;-71
2020/12/15 10:36:24;;;;;;;9.27;5.95;;;;;;;9.60;72.76;101089.44;5029255;28;20061;-71
2020/12/15 10:38:49;;;;;;;11.95;6.30;;;;;;;9.79;71.11;101080.94;5027532;28;20033;-71
2020/12/15 10:41:15;;;;;;;11.77;10.57;;;;;;;9.86;70.84;101080.44;5016949;28;20042;-71
2020/12/15 10:43:40;;;;;;;7.93;5.90;;;;;;;9.97;70.91;101074.91;5009201;28;20034;-71
2020/12/15 10:46:05;;;;;;;7.20;5.10;;;;;;;9.75;70.87;101039.47;5008679;28;20030;-71
2020/12/15 10:48:31;;;;;;;9.23;5.43;;;;;;;9.71;71.40;101033.28;5009254;28;20061;-71
2020/12/15 10:50:57;;;;;;;8.60;5.47;;;;;;;9.98;69.78;101059.53;5009029;28;20479;-71
2020/12/15 10:53:22;;;;;;;11.63;7.00;;;;;;;10.02;70.70;101060.56;5009556;28;20116;-72
2020/12/15 10:55:49;;;;;;;7.45;5.30;;;;;;;9.96;70.40;101058.56;4993274;28;20530;-71
2020/12/15 10:58:15;;;;;;;16.90;11.35;;;;;;;10.10;69.48;101054.06;5009360;28;20037;-71
2020/12/15 11:00:41;;;;;;;14.55;9.77;;;;;;;10.22;70.36;101048.63;5009176;28;20052;-72
2020/12/15 11:03:08;;;;;;;8.00;5.85;;;;;;;10.36;67.34;101039.84;5008624;28;20513;-72
2020/12/15 11:05:34;;;;;;;7.45;5.65;;;;;;;10.48;67.70;101046.41;5015108;28;20097;-71
2020/12/15 11:08:00;;;;;;;8.13;6.57;;;;;;;10.63;68.03;101048.81;5070312;28;20056;-72
2020/12/15 11:10:25;;;;;;;27.95;15.52;;;;;;;10.76;67.19;101045.09;5071193;28;20021;-71
2020/12/15 11:12:51;;;;;;;11.32;7.05;;;;;;;10.84;66.66;101038.56;5070990;28;20428;-71
2020/12/15 11:15:16;;;;;;;7.30;6.07;;;;;;;10.90;64.09;101031.09;5053176;28;20029;-70
2020/12/15 11:17:41;;;;;;;6.38;5.03;;;;;;;10.92;64.14;101033.78;5070819;28;20020;-72
2020/12/15 11:20:07;;;;;;;10.60;6.32;;;;;;;10.96;63.82;101039.13;5069592;28;20036;-71
2020/12/15 11:22:33;;;;;;;9.07;5.88;;;;;;;10.83;65.72;101037.69;5070871;28;20043;-72
2020/12/15 11:24:58;;;;;;;8.15;4.75;;;;;;;10.92;63.69;101036.34;5070536;28;20043;-72
2020/12/15 11:27:23;;;;;;;8.52;5.78;;;;;;;10.87;65.03;101035.28;5070089;28;20093;-71
2020/12/15 11:29:49;;;;;;;10.45;7.13;;;;;;;10.89;65.70;101024.19;5070731;28;20117;-72